Time;durP1;ratioP1;P1;durP2;ratioP2;P2;SDS_P1;SDS_P2;PMS_P1;PMS_P2;Temp;Humidity;BMP_temperature;BMP_pressure;BME280_temperature;BME280_humidity;BME280_pressure;Samples;Min_cycle;Max_cycle;Signal;HPM_P1;HPM_P2
2024/01/03 00:10:13;;;;;;;4.18;0.80;;;;;;;;;;5867435;24;20476;-84
2024/01/03 00:13:36;;;;;;;2.17;0.70;;;;;;;;;;5940450;24;20036;-84
2024/01/03 00:16:42;;;;;;;;;;;;;;;;;;;;;
2024/01/03 00:19:41;;;;;;;;;;;;;;;;;;;;;
2024/01/03 00:35:35;;;;;;;5.82;0.90;;;;;;;;;;6185267;23;20232;-85
2024/01/03 00:45:50;;;;;;;5.75;1.20;;;;;;;;;;6142503;23;20067;-85
2024/01/03 00:55:13;;;;;;;5.95;1.38;;;;;;;;;;6292536;22;20015;-84
2024/01/03 00:58:11;;;;;;;7.57;1.35;;;;;;;;;;6245529;22;20452;-84
2024/01/03 01:04:57;;;;;;;3.50;1.95;;;;;;;;;;6269579;22;20276;-84
2024/01/03 01:07:23;;;;;;;4.68;1.00;;;;;;;;;;6255239;22;20043;-85
2024/01/03 01:09:49;;;;;;;4.78;1.10;;;;;;;;;;6230731;22;20473;-84
2024/01/03 01:12:15;;;;;;;4.15;0.90;;;;;;;;;;6260158;22;20451;-85
2024/01/03 01:14:46;;;;;;;10.23;1.38;;;;;;;;;;6216076;22;20023;-85
2024/01/03 01:17:40;;;;;;;4.28;1.10;;;;;;;;;;6248018;22;20020;-85
2024/01/03 01:20:14;;;;;;;3.22;1.08;;;;;;;;;;6213174;22;20015;-85
2024/01/03 01:25:58;;;;;;;6.10;1.30;;;;;;;;;;6267928;22;20357;-82
2024/01/03 01:28:30;;;;;;;3.42;0.77;;;;;;;;;;6216430;22;20086;-83
2024/01/03 01:31:00;;;;;;;4.68;0.80;;;;;;;;;;6214728;22;20320;-82
2024/01/03 01:41:57;;;;;;;5.07;1.17;;;;;;;;;;6318053;22;20188;-84
2024/01/03 01:44:23;;;;;;;4.32;0.77;;;;;;;;;;6245963;22;20014;-85
2024/01/03 01:46:51;;;;;;;5.70;1.30;;;;;;;;;;6246275;22;20018;-85
2024/01/03 01:49:20;;;;;;;4.55;0.90;;;;;;;;;;6242621;22;20023;-85
2024/01/03 01:51:51;;;;;;;8.32;1.30;;;;;;;;;;6274085;22;20097;-85
2024/01/03 01:54:17;;;;;;;5.00;1.77;;;;;;;;;;6242416;22;20054;-84
2024/01/03 02:04:09;;;;;;;3.83;0.95;;;;;;;;;;6139862;23;20814;-85
2024/01/03 02:07:01;;;;;;;4.45;0.98;;;;;;;;;;6051895;22;20647;-85
2024/01/03 02:13:27;;;;;;;5.30;1.17;;;;;;;;;;6161889;23;20419;-83
2024/01/03 02:16:06;;;;;;;5.20;1.23;;;;;;;;;;6175590;23;20020;-87
2024/01/03 02:18:35;;;;;;;5.30;0.88;;;;;;;;;;6199773;22;20026;-87
2024/01/03 02:21:04;;;;;;;6.57;1.15;;;;;;;;;;6212362;22;20022;-86
2024/01/03 02:23:33;;;;;;;4.43;1.20;;;;;;;;;;6216575;22;20143;-87
2024/01/03 02:26:08;;;;;;;5.93;1.10;;;;;;;;;;6265058;22;20096;-85
2024/01/03 02:28:37;;;;;;;4.63;1.17;;;;;;;;;;6242844;22;20094;-86
2024/01/03 02:31:17;;;;;;;1.88;0.90;;;;;;;;;;6216097;22;20126;-86
2024/01/03 02:34:02;;;;;;;;;;;;;;;;;;;;;
2024/01/03 02:36:34;;;;;;;4.32;0.80;;;;;;;;;;6244589;22;20401;-86
2024/01/03 02:39:03;;;;;;;2.33;0.80;;;;;;;;;;6213519;22;20428;-85
2024/01/03 02:41:33;;;;;;;3.60;0.63;;;;;;;;;;6195170;23;20027;-86
2024/01/03 02:44:30;;;;;;;1.35;0.55;;;;;;;;;;6181567;23;20048;-86
2024/01/03 02:47:16;;;;;;;3.47;0.90;;;;;;;;;;6185877;23;20020;-87
2024/01/03 02:52:54;;;;;;;3.97;0.80;;;;;;;;;;6293687;22;20019;-91
2024/01/03 02:55:21;;;;;;;5.15;0.80;;;;;;;;;;6273503;22;20022;-91
2024/01/03 02:57:47;;;;;;;4.55;1.10;;;;;;;;;;6274071;22;20077;-92
2024/01/03 03:00:13;;;;;;;2.88;0.95;;;;;;;;;;6271788;22;20022;-92
2024/01/03 03:02:39;;;;;;;2.58;0.85;;;;;;;;;;6276486;22;20140;-92
2024/01/03 03:05:05;;;;;;;5.80;1.10;;;;;;;;;;6300562;22;20015;-91
2024/01/03 03:07:32;;;;;;;4.70;0.90;;;;;;;;;;6276647;22;20038;-92
2024/01/03 03:09:58;;;;;;;0.60;0.60;;;;;;;;;;6275105;22;20019;-91
2024/01/03 03:12:24;;;;;;;2.25;0.75;;;;;;;;;;6251453;22;20019;-90
2024/01/03 03:14:50;;;;;;;2.35;0.80;;;;;;;;;;6276795;22;20149;-91
2024/01/03 03:17:16;;;;;;;1.88;0.60;;;;;;;;;;6244066;22;20029;-91
2024/01/03 03:19:43;;;;;;;0.88;0.60;;;;;;;;;;6220661;22;20026;-92
2024/01/03 03:22:09;;;;;;;3.22;0.55;;;;;;;;;;6219898;22;20065;-91
2024/01/03 03:24:35;;;;;;;2.63;0.75;;;;;;;;;;6246552;22;20015;-91
2024/01/03 03:27:01;;;;;;;1.15;0.60;;;;;;;;;;6219203;22;20435;-91
2024/01/03 03:29:27;;;;;;;2.25;0.77;;;;;;;;;;6270750;22;20019;-91
2024/01/03 03:31:53;;;;;;;4.40;0.88;;;;;;;;;;6223680;22;20093;-92
2024/01/03 03:34:19;;;;;;;0.80;0.50;;;;;;;;;;6246134;22;20019;-92
2024/01/03 03:36:45;;;;;;;1.58;0.80;;;;;;;;;;6222913;22;20023;-92
2024/01/03 03:39:11;;;;;;;0.80;0.50;;;;;;;;;;6220330;22;20017;-91
2024/01/03 03:41:37;;;;;;;2.60;0.60;;;;;;;;;;6222778;22;20047;-93
2024/01/03 03:44:03;;;;;;;0.93;0.60;;;;;;;;;;6271874;22;20038;-92
2024/01/03 03:46:30;;;;;;;1.10;0.68;;;;;;;;;;6222284;22;20340;-92
2024/01/03 03:48:56;;;;;;;0.55;0.50;;;;;;;;;;6221469;22;20026;-92
2024/01/03 03:51:22;;;;;;;2.85;0.73;;;;;;;;;;6221180;22;20055;-92
2024/01/03 03:53:48;;;;;;;0.60;0.57;;;;;;;;;;6271705;22;20027;-91
2024/01/03 03:56:21;;;;;;;2.85;0.80;;;;;;;;;;6244186;22;20049;-92
2024/01/03 03:58:47;;;;;;;1.50;0.70;;;;;;;;;;6221203;22;20023;-91
2024/01/03 04:01:13;;;;;;;1.80;0.60;;;;;;;;;;6219126;22;20360;-92
2024/01/03 04:03:39;;;;;;;3.88;0.60;;;;;;;;;;6246875;22;20019;-92
2024/01/03 04:06:05;;;;;;;1.95;0.55;;;;;;;;;;6219867;22;20011;-92
2024/01/03 04:08:31;;;;;;;1.33;0.52;;;;;;;;;;6220684;22;20015;-90
2024/01/03 04:10:57;;;;;;;1.30;0.50;;;;;;;;;;6218258;22;20038;-91
2024/01/03 04:13:23;;;;;;;0.88;0.50;;;;;;;;;;6270857;22;20336;-90
2024/01/03 04:15:49;;;;;;;2.42;1.13;;;;;;;;;;6219044;22;20019;-90
2024/01/03 04:18:15;;;;;;;1.20;0.40;;;;;;;;;;6243250;22;20021;-90
2024/01/03 04:20:41;;;;;;;1.48;0.50;;;;;;;;;;6245278;22;20367;-91
2024/01/03 04:23:07;;;;;;;0.70;0.55;;;;;;;;;;6217691;22;20397;-91
2024/01/03 04:25:33;;;;;;;2.80;0.77;;;;;;;;;;6269721;22;20055;-91
2024/01/03 04:27:59;;;;;;;6.53;1.08;;;;;;;;;;6216291;22;20106;-91
2024/01/03 04:30:25;;;;;;;6.18;1.40;;;;;;;;;;6269481;22;20065;-91
2024/01/03 04:32:51;;;;;;;6.20;1.48;;;;;;;;;;6219891;22;20011;-92
2024/01/03 04:35:17;;;;;;;8.07;1.92;;;;;;;;;;6243532;22;20425;-91
2024/01/03 04:37:43;;;;;;;15.98;2.88;;;;;;;;;;6219203;22;20829;-91
2024/01/03 04:40:10;;;;;;;16.10;2.33;;;;;;;;;;6217935;22;20034;-91
2024/01/03 04:42:36;;;;;;;10.85;1.80;;;;;;;;;;6245639;22;20332;-91
2024/01/03 04:45:02;;;;;;;17.13;2.08;;;;;;;;;;6216100;22;20011;-91
2024/01/03 04:47:28;;;;;;;12.40;1.83;;;;;;;;;;6219057;22;20110;-91
2024/01/03 04:49:54;;;;;;;14.32;2.08;;;;;;;;;;6217080;22;20088;-91
2024/01/03 04:52:20;;;;;;;15.85;2.22;;;;;;;;;;6240839;22;20023;-91
2024/01/03 04:54:46;;;;;;;16.45;2.15;;;;;;;;;;6220082;22;20013;-91
2024/01/03 04:57:12;;;;;;;10.55;2.22;;;;;;;;;;6242482;22;20019;-91
2024/01/03 04:59:38;;;;;;;16.58;2.53;;;;;;;;;;6219533;22;20019;-92
2024/01/03 05:02:05;;;;;;;15.65;3.30;;;;;;;;;;6265959;22;20030;-90
2024/01/03 05:04:31;;;;;;;21.33;2.30;;;;;;;;;;6219467;22;20011;-91
2024/01/03 05:06:57;;;;;;;21.83;2.70;;;;;;;;;;6218364;22;20046;-92
2024/01/03 05:09:23;;;;;;;11.70;1.73;;;;;;;;;;6269272;22;20019;-92
2024/01/03 05:11:49;;;;;;;18.58;2.55;;;;;;;;;;6219728;22;20030;-92
2024/01/03 05:14:15;;;;;;;17.40;2.95;;;;;;;;;;6216892;22;20050;-91
2024/01/03 05:16:41;;;;;;;22.02;3.92;;;;;;;;;;6217870;22;20025;-91
2024/01/03 05:19:07;;;;;;;16.92;2.33;;;;;;;;;;6216348;22;20030;-91
2024/01/03 05:21:33;;;;;;;9.30;2.55;;;;;;;;;;6220196;22;20015;-92
2024/01/03 05:23:59;;;;;;;12.68;2.42;;;;;;;;;;6216941;22;20007;-92
2024/01/03 05:26:25;;;;;;;13.10;1.90;;;;;;;;;;6219223;22;20339;-92
2024/01/03 05:28:51;;;;;;;21.50;2.67;;;;;;;;;;6220178;22;20026;-91
2024/01/03 05:31:18;;;;;;;9.90;1.70;;;;;;;;;;6267727;22;20027;-91
2024/01/03 05:33:44;;;;;;;14.63;2.05;;;;;;;;;;6220118;22;20072;-91
2024/01/03 05:36:10;;;;;;;16.50;3.45;;;;;;;;;;6243930;22;20022;-92
2024/01/03 05:38:36;;;;;;;8.52;1.77;;;;;;;;;;6220562;22;20015;-91
2024/01/03 05:41:02;;;;;;;12.10;2.45;;;;;;;;;;6243574;22;20019;-91
2024/01/03 05:43:28;;;;;;;10.52;2.58;;;;;;;;;;6220072;22;20423;-92
2024/01/03 05:45:54;;;;;;;9.35;1.95;;;;;;;;;;6218764;22;20019;-91
2024/01/03 05:48:20;;;;;;;11.13;2.05;;;;;;;;;;6216802;22;20015;-92
2024/01/03 05:50:46;;;;;;;11.93;1.88;;;;;;;;;;6219172;22;20080;-91
2024/01/03 05:53:12;;;;;;;13.27;2.13;;;;;;;;;;6267294;22;20116;-91
2024/01/03 05:55:38;;;;;;;12.88;2.92;;;;;;;;;;6216685;22;20029;-92
2024/01/03 05:58:04;;;;;;;11.43;2.08;;;;;;;;;;6216134;22;20436;-92
2024/01/03 06:00:30;;;;;;;15.80;1.90;;;;;;;;;;6220519;22;20026;-91
2024/01/03 06:02:59;;;;;;;20.67;2.08;;;;;;;;;;6218500;22;20018;-92
2024/01/03 06:05:26;;;;;;;;;;;;;;;;;;6243891;22;20102;-92
2024/01/03 06:07:52;;;;;;;11.82;2.05;;;;;;;;;;6244371;22;19964;-92
2024/01/03 06:10:18;;;;;;;13.68;1.88;;;;;;;;;;6242092;22;20024;-91
2024/01/03 06:12:44;;;;;;;9.60;2.08;;;;;;;;;;6219627;22;20088;-92
2024/01/03 06:15:10;;;;;;;13.18;2.10;;;;;;;;;;6215493;22;20030;-92
2024/01/03 06:17:36;;;;;;;10.70;2.25;;;;;;;;;;6218472;22;20011;-91
2024/01/03 06:20:03;;;;;;;8.93;1.52;;;;;;;;;;6216968;22;20755;-91
2024/01/03 06:22:29;;;;;;;13.90;2.22;;;;;;;;;;6218693;22;20020;-90
2024/01/03 06:24:55;;;;;;;14.77;1.83;;;;;;;;;;6244879;22;20034;-91
2024/01/03 06:27:21;;;;;;;13.65;2.67;;;;;;;;;;6242708;22;20420;-92
2024/01/03 06:29:47;;;;;;;7.60;1.60;;;;;;;;;;6244432;22;20007;-91
2024/01/03 06:32:14;;;;;;;7.60;1.40;;;;;;;;;;6241837;22;20708;-91
2024/01/03 06:34:40;;;;;;;8.63;1.60;;;;;;;;;;6270312;22;20657;-92
2024/01/03 06:37:06;;;;;;;7.80;1.65;;;;;;;;;;6242656;22;20026;-91
2024/01/03 06:39:32;;;;;;;7.13;1.25;;;;;;;;;;6247430;22;20011;-91
2024/01/03 06:41:59;;;;;;;4.53;1.42;;;;;;;;;;6270797;22;20435;-92
2024/01/03 06:44:25;;;;;;;5.28;1.10;;;;;;;;;;6221466;22;20094;-92
2024/01/03 06:46:51;;;;;;;5.80;1.30;;;;;;;;;;6220400;22;20043;-92
2024/01/03 06:49:17;;;;;;;10.35;1.63;;;;;;;;;;6218526;22;20017;-92
2024/01/03 06:51:44;;;;;;;12.90;2.25;;;;;;;;;;6272280;22;20081;-92
2024/01/03 06:54:10;;;;;;;11.55;1.63;;;;;;;;;;6243861;22;20055;-91
2024/01/03 06:56:36;;;;;;;9.77;1.55;;;;;;;;;;6221651;22;20058;-92
2024/01/03 06:59:02;;;;;;;11.00;2.05;;;;;;;;;;6219886;22;20355;-92
2024/01/03 07:01:28;;;;;;;9.73;1.73;;;;;;;;;;6247559;22;20015;-92
2024/01/03 07:03:54;;;;;;;10.25;1.85;;;;;;;;;;6220279;22;20022;-92
2024/01/03 07:06:20;;;;;;;9.88;1.83;;;;;;;;;;6218981;22;20094;-91
2024/01/03 07:08:48;;;;;;;9.55;1.83;;;;;;;;;;6247099;22;20054;-92
2024/01/03 07:11:14;;;;;;;;;;;;;;;;;;6220353;22;20118;-92
2024/01/03 07:13:40;;;;;;;10.60;2.17;;;;;;;;;;6246941;22;19991;-92
2024/01/03 07:16:06;;;;;;;14.02;1.73;;;;;;;;;;6219073;22;20015;-92
2024/01/03 07:18:32;;;;;;;7.90;2.17;;;;;;;;;;6272324;22;20023;-92
2024/01/03 07:20:58;;;;;;;6.95;2.17;;;;;;;;;;6219860;22;20019;-92
2024/01/03 07:23:24;;;;;;;7.55;1.88;;;;;;;;;;6219772;22;20019;-92
2024/01/03 07:25:50;;;;;;;18.67;2.60;;;;;;;;;;6219390;22;20097;-92
2024/01/03 07:28:16;;;;;;;14.32;2.17;;;;;;;;;;6219811;22;20025;-93
2024/01/03 07:30:42;;;;;;;12.90;2.00;;;;;;;;;;6221590;22;20030;-93
2024/01/03 07:33:09;;;;;;;17.52;2.78;;;;;;;;;;6218973;22;20023;-92
2024/01/03 07:35:35;;;;;;;11.85;3.30;;;;;;;;;;6221064;22;20059;-92
2024/01/03 07:38:01;;;;;;;12.32;2.17;;;;;;;;;;6243755;22;20019;-92
2024/01/03 07:40:27;;;;;;;20.90;1.95;;;;;;;;;;6246503;22;20026;-92
2024/01/03 07:42:53;;;;;;;10.63;1.67;;;;;;;;;;6222304;22;20382;-90
2024/01/03 07:45:19;;;;;;;11.23;1.70;;;;;;;;;;6242777;22;20019;-91
2024/01/03 07:47:45;;;;;;;7.18;1.90;;;;;;;;;;6271309;22;20056;-92
2024/01/03 07:50:11;;;;;;;6.72;1.60;;;;;;;;;;6243407;22;20011;-92
2024/01/03 07:52:37;;;;;;;5.20;1.17;;;;;;;;;;6245992;22;20023;-92
2024/01/03 07:55:04;;;;;;;4.25;1.17;;;;;;;;;;6244076;22;20068;-92
2024/01/03 07:57:30;;;;;;;7.60;1.25;;;;;;;;;;6220479;22;20026;-92
2024/01/03 07:59:56;;;;;;;10.75;2.00;;;;;;;;;;6219839;22;20019;-92
2024/01/03 08:02:22;;;;;;;12.27;1.42;;;;;;;;;;6220933;22;20098;-92
2024/01/03 08:04:48;;;;;;;6.80;1.58;;;;;;;;;;6246618;22;20011;-93
2024/01/03 08:07:14;;;;;;;5.28;1.40;;;;;;;;;;6244874;22;20011;-91
2024/01/03 08:09:40;;;;;;;4.00;1.10;;;;;;;;;;6221212;22;20387;-91
2024/01/03 08:12:08;;;;;;;6.32;1.25;;;;;;;;;;6270310;22;20016;-92
2024/01/03 08:14:34;;;;;;;5.90;1.48;;;;;;;;;;6246803;22;20023;-91
2024/01/03 08:17:01;;;;;;;10.27;1.50;;;;;;;;;;6242808;22;20015;-93
2024/01/03 08:19:27;;;;;;;9.70;1.38;;;;;;;;;;6222872;22;20023;-93
2024/01/03 08:21:54;;;;;;;9.27;1.52;;;;;;;;;;6223035;22;20435;-93
2024/01/03 08:24:20;;;;;;;9.27;1.77;;;;;;;;;;6220023;22;20023;-93
2024/01/03 08:26:47;;;;;;;8.10;1.48;;;;;;;;;;6221300;22;20376;-94
2024/01/03 08:29:13;;;;;;;7.82;1.52;;;;;;;;;;6245101;22;20054;-93
2024/01/03 08:31:42;;;;;;;9.27;1.45;;;;;;;;;;6221616;22;20015;-93
2024/01/03 08:34:08;;;;;;;12.82;2.40;;;;;;;;;;6220389;22;20080;-92
2024/01/03 08:36:40;;;;;;;8.48;1.98;;;;;;;;;;6219037;22;20015;-92
2024/01/03 08:39:07;;;;;;;9.00;1.48;;;;;;;;;;6217819;22;20019;-93
2024/01/03 08:41:33;;;;;;;8.55;1.33;;;;;;;;;;6220799;22;20055;-93
2024/01/03 08:43:59;;;;;;;7.32;1.70;;;;;;;;;;6218163;22;20066;-93
2024/01/03 08:46:30;;;;;;;11.15;1.25;;;;;;;;;;6272485;22;20007;-93
2024/01/03 08:48:56;;;;;;;5.35;1.33;;;;;;;;;;6221019;22;20095;-93
2024/01/03 08:51:23;;;;;;;6.47;1.90;;;;;;;;;;6220815;22;20058;-92
2024/01/03 08:53:49;;;;;;;7.57;1.27;;;;;;;;;;6221177;22;20784;-92
2024/01/03 08:56:16;;;;;;;9.93;1.50;;;;;;;;;;6245013;22;20018;-93
2024/01/03 08:58:42;;;;;;;11.98;1.70;;;;;;;;;;6222832;22;20023;-93
2024/01/03 09:01:08;;;;;;;5.55;2.05;;;;;;;;;;6219114;22;20320;-93
2024/01/03 09:03:38;;;;;;;6.90;1.20;;;;;;;;;;6220895;22;20198;-92
2024/01/03 09:06:05;;;;;;;8.95;1.35;;;;;;;;;;6218138;22;20019;-93
2024/01/03 09:08:31;;;;;;;3.85;1.48;;;;;;;;;;6221425;22;20097;-94
2024/01/03 09:10:57;;;;;;;6.10;1.50;;;;;;;;;;6221197;22;20019;-93
2024/01/03 09:13:23;;;;;;;7.88;1.83;;;;;;;;;;6221140;22;20022;-94
2024/01/03 09:15:49;;;;;;;9.27;1.30;;;;;;;;;;6246149;22;20015;-94
2024/01/03 09:18:15;;;;;;;9.35;2.00;;;;;;;;;;6244273;22;20408;-93
2024/01/03 09:20:41;;;;;;;7.63;1.00;;;;;;;;;;6221610;22;20051;-94
2024/01/03 09:23:07;;;;;;;5.82;1.38;;;;;;;;;;6218936;22;20046;-94
2024/01/03 09:25:33;;;;;;;8.82;1.33;;;;;;;;;;6219730;22;20022;-94
2024/01/03 09:27:59;;;;;;;7.28;1.42;;;;;;;;;;6241812;22;20051;-93
2024/01/03 09:30:25;;;;;;;7.05;1.50;;;;;;;;;;6219963;22;20022;-94
2024/01/03 09:32:51;;;;;;;7.82;1.70;;;;;;;;;;6221016;22;20025;-93
2024/01/03 09:35:17;;;;;;;8.95;1.98;;;;;;;;;;6219121;22;20915;-93
2024/01/03 09:37:43;;;;;;;8.25;1.40;;;;;;;;;;6220412;22;20046;-92
2024/01/03 09:40:11;;;;;;;13.35;1.77;;;;;;;;;;6219090;22;20015;-93
2024/01/03 09:42:37;;;;;;;9.20;1.60;;;;;;;;;;6220552;22;20011;-93
2024/01/03 09:45:03;;;;;;;6.65;1.73;;;;;;;;;;6218497;22;20332;-93
2024/01/03 09:47:29;;;;;;;12.93;1.95;;;;;;;;;;6220193;22;20011;-93
2024/01/03 09:49:55;;;;;;;9.50;1.52;;;;;;;;;;6220805;22;20015;-94
2024/01/03 09:52:21;;;;;;;7.60;1.27;;;;;;;;;;6200518;23;20024;-93
2024/01/03 09:54:47;;;;;;;8.98;1.75;;;;;;;;;;6185129;23;20020;-93
2024/01/03 09:57:14;;;;;;;7.03;1.10;;;;;;;;;;6183776;23;20333;-94
2024/01/03 09:59:40;;;;;;;10.10;2.22;;;;;;;;;;6185771;23;20027;-92
2024/01/03 10:02:06;;;;;;;10.73;1.90;;;;;;;;;;6183291;23;20020;-93
2024/01/03 10:04:33;;;;;;;10.48;1.83;;;;;;;;;;6186169;23;20049;-93
2024/01/03 10:06:59;;;;;;;7.93;2.17;;;;;;;;;;6209525;23;20048;-93
2024/01/03 10:09:25;;;;;;;7.90;1.60;;;;;;;;;;6185929;23;20031;-93
2024/01/03 10:11:53;;;;;;;7.05;2.05;;;;;;;;;;6212035;23;20023;-93
2024/01/03 10:14:20;;;;;;;6.35;1.42;;;;;;;;;;6212022;23;20024;-94
2024/01/03 10:16:47;;;;;;;5.60;1.20;;;;;;;;;;6187713;23;20012;-93
2024/01/03 10:19:17;;;;;;;8.48;1.40;;;;;;;;;;6186515;23;20379;-94
2024/01/03 10:21:46;;;;;;;11.07;2.40;;;;;;;;;;6212842;23;20024;-94
2024/01/03 10:24:12;;;;;;;6.55;1.83;;;;;;;;;;6211405;23;20019;-94
2024/01/03 10:26:38;;;;;;;10.27;1.65;;;;;;;;;;6187623;23;20020;-93
2024/01/03 10:29:08;;;;;;;8.73;2.40;;;;;;;;;;6208949;23;20020;-93
2024/01/03 10:31:34;;;;;;;5.97;1.58;;;;;;;;;;6187256;23;20031;-94
2024/01/03 10:34:00;;;;;;;3.75;1.20;;;;;;;;;;6184479;23;20024;-93
2024/01/03 10:36:26;;;;;;;2.92;0.95;;;;;;;;;;6212898;23;20070;-93
2024/01/03 10:38:52;;;;;;;7.57;1.00;;;;;;;;;;6186777;23;20088;-92
2024/01/03 10:41:18;;;;;;;7.93;1.40;;;;;;;;;;6189574;22;20019;-93
2024/01/03 10:43:44;;;;;;;6.18;1.33;;;;;;;;;;6218226;22;20018;-94
2024/01/03 10:46:10;;;;;;;5.25;1.23;;;;;;;;;;6189596;22;20436;-93
2024/01/03 10:48:36;;;;;;;4.55;0.82;;;;;;;;;;6216651;22;20026;-93
2024/01/03 10:51:03;;;;;;;4.68;1.17;;;;;;;;;;6239385;22;20018;-93
2024/01/03 10:53:30;;;;;;;6.28;1.60;;;;;;;;;;6214093;22;20027;-93
2024/01/03 10:55:58;;;;;;;9.02;1.30;;;;;;;;;;6216641;22;20024;-94
2024/01/03 10:58:24;;;;;;;11.25;2.38;;;;;;;;;;6218119;22;20024;-94
2024/01/03 11:01:09;;;;;;;6.45;1.38;;;;;;;;;;6241190;22;20023;-93
2024/01/03 11:03:54;;;;;;;9.23;1.67;;;;;;;;;;6267824;22;20110;-93
2024/01/03 11:06:42;;;;;;;10.13;1.90;;;;;;;;;;6264073;22;20058;-94
2024/01/03 11:09:08;;;;;;;10.88;1.40;;;;;;;;;;6214330;22;20440;-94
2024/01/03 11:11:34;;;;;;;10.27;1.73;;;;;;;;;;6240384;22;20455;-93
2024/01/03 11:14:02;;;;;;;5.45;1.38;;;;;;;;;;6240256;22;20456;-94
2024/01/03 11:16:39;;;;;;;6.27;1.67;;;;;;;;;;6277428;22;20016;-92
2024/01/03 11:19:07;;;;;;;3.85;1.42;;;;;;;;;;6239550;22;20016;-95
2024/01/03 11:21:36;;;;;;;10.30;1.70;;;;;;;;;;6218362;22;20062;-94
2024/01/03 11:24:02;;;;;;;6.85;2.22;;;;;;;;;;6240780;22;20095;-95
2024/01/03 11:26:47;;;;;;;8.27;1.73;;;;;;;;;;6218237;22;20012;-94
2024/01/03 11:29:33;;;;;;;10.63;1.48;;;;;;;;;;6239911;22;20354;-95
2024/01/03 11:32:02;;;;;;;10.75;2.00;;;;;;;;;;6240813;22;20020;-94
2024/01/03 11:34:38;;;;;;;6.47;1.58;;;;;;;;;;6217915;22;20022;-95
2024/01/03 11:37:06;;;;;;;10.55;1.88;;;;;;;;;;6217485;22;20011;-94
2024/01/03 11:39:33;;;;;;;9.38;1.48;;;;;;;;;;6219235;22;20098;-94
2024/01/03 11:41:59;;;;;;;5.97;1.75;;;;;;;;;;6239227;22;20070;-93
2024/01/03 11:44:25;;;;;;;10.50;2.03;;;;;;;;;;6240550;22;20016;-92
2024/01/03 11:47:00;;;;;;;9.15;1.67;;;;;;;;;;6244004;22;20091;-92
2024/01/03 11:49:27;;;;;;;9.20;1.90;;;;;;;;;;6216212;22;20019;-93
2024/01/03 11:51:53;;;;;;;10.93;1.95;;;;;;;;;;6217097;22;20081;-94
2024/01/03 11:54:19;;;;;;;11.88;2.17;;;;;;;;;;6215415;22;20047;-93
2024/01/03 11:56:45;;;;;;;12.02;2.42;;;;;;;;;;6214786;22;20020;-91
2024/01/03 11:59:11;;;;;;;9.88;2.00;;;;;;;;;;6212726;22;20027;-91
2024/01/03 12:01:37;;;;;;;13.05;3.20;;;;;;;;;;6241134;22;20026;-92
2024/01/03 12:04:13;;;;;;;15.30;2.67;;;;;;;;;;6237890;22;20051;-91
2024/01/03 12:06:41;;;;;;;9.55;1.95;;;;;;;;;;6242178;22;20020;-91
2024/01/03 12:09:10;;;;;;;9.70;1.90;;;;;;;;;;6215029;22;20609;-91
2024/01/03 12:11:36;;;;;;;14.27;2.17;;;;;;;;;;6216121;22;20023;-90
2024/01/03 12:14:02;;;;;;;15.95;2.33;;;;;;;;;;6213679;22;20016;-91
2024/01/03 12:16:28;;;;;;;16.40;2.55;;;;;;;;;;6264673;22;20065;-89
2024/01/03 12:18:55;;;;;;;12.88;1.98;;;;;;;;;;6214041;22;20451;-91
2024/01/03 12:21:21;;;;;;;7.25;1.70;;;;;;;;;;6212529;22;20027;-90
2024/01/03 12:23:56;;;;;;;8.27;1.83;;;;;;;;;;6239871;22;20322;-90
2024/01/03 12:26:22;;;;;;;9.57;1.90;;;;;;;;;;6213006;22;20105;-90
2024/01/03 12:28:54;;;;;;;6.75;1.35;;;;;;;;;;6240549;22;20016;-91
2024/01/03 12:31:27;;;;;;;10.23;2.60;;;;;;;;;;6210830;22;20019;-93
2024/01/03 12:33:55;;;;;;;8.00;1.70;;;;;;;;;;6214771;22;20364;-90
2024/01/03 12:36:21;;;;;;;6.00;1.13;;;;;;;;;;6236315;22;20095;-91
2024/01/03 12:38:47;;;;;;;6.32;1.40;;;;;;;;;;6238765;22;20062;-91
2024/01/03 12:41:13;;;;;;;4.63;1.42;;;;;;;;;;6261602;22;20111;-89
2024/01/03 12:43:39;;;;;;;6.43;1.60;;;;;;;;;;6211945;22;20012;-90
2024/01/03 12:46:05;;;;;;;4.88;1.30;;;;;;;;;;6236978;22;20030;-91
2024/01/03 12:48:31;;;;;;;6.95;2.10;;;;;;;;;;6211723;22;20106;-91
2024/01/03 12:50:57;;;;;;;6.40;1.40;;;;;;;;;;6236970;22;20405;-91
2024/01/03 12:53:23;;;;;;;8.50;1.92;;;;;;;;;;6211323;22;20019;-91
2024/01/03 12:56:05;;;;;;;8.80;2.20;;;;;;;;;;6212345;22;20400;-96
2024/01/03 12:58:33;;;;;;;7.05;1.58;;;;;;;;;;6215799;22;20523;-94
2024/01/03 13:00:59;;;;;;;9.48;1.83;;;;;;;;;;6211490;22;20343;-94
2024/01/03 13:03:37;;;;;;;11.90;2.20;;;;;;;;;;6242884;22;20534;-95
2024/01/03 13:06:03;;;;;;;7.38;1.73;;;;;;;;;;6218853;22;20046;-93
2024/01/03 13:08:29;;;;;;;14.73;1.95;;;;;;;;;;6241213;22;20038;-93
2024/01/03 13:10:55;;;;;;;7.65;1.67;;;;;;;;;;6217075;22;20584;-93
2024/01/03 13:13:21;;;;;;;9.85;2.10;;;;;;;;;;6212610;22;20059;-93
2024/01/03 13:15:50;;;;;;;9.85;1.95;;;;;;;;;;6216792;22;20023;-93
2024/01/03 13:18:16;;;;;;;9.48;2.67;;;;;;;;;;6215766;22;20058;-93
2024/01/03 13:20:42;;;;;;;12.52;2.08;;;;;;;;;;6241085;22;20016;-93
2024/01/03 13:23:08;;;;;;;10.10;1.40;;;;;;;;;;6213767;22;20124;-93
2024/01/03 13:25:35;;;;;;;8.63;1.63;;;;;;;;;;6215686;22;20024;-93
2024/01/03 13:28:01;;;;;;;7.82;1.60;;;;;;;;;;6213505;22;20022;-94
2024/01/03 13:30:28;;;;;;;9.25;1.98;;;;;;;;;;6213551;22;20016;-93
2024/01/03 13:32:54;;;;;;;5.68;1.70;;;;;;;;;;6240887;22;20023;-93
2024/01/03 13:35:21;;;;;;;9.18;1.88;;;;;;;;;;6214488;22;20016;-93
2024/01/03 13:37:48;;;;;;;12.18;2.15;;;;;;;;;;6214724;22;20012;-93
2024/01/03 13:40:14;;;;;;;12.43;1.88;;;;;;;;;;6215270;22;20046;-92
2024/01/03 13:42:40;;;;;;;9.98;1.73;;;;;;;;;;6216494;22;20019;-93
2024/01/03 13:45:07;;;;;;;9.45;1.90;;;;;;;;;;6213114;22;20026;-93
2024/01/03 13:47:33;;;;;;;6.47;1.63;;;;;;;;;;6240943;22;20008;-92
2024/01/03 13:49:59;;;;;;;11.10;1.50;;;;;;;;;;6214823;22;20340;-94
2024/01/03 13:52:25;;;;;;;9.48;2.67;;;;;;;;;;6216864;22;20024;-92
2024/01/03 13:54:51;;;;;;;6.20;1.30;;;;;;;;;;6216456;22;20050;-93
2024/01/03 13:57:17;;;;;;;8.57;1.98;;;;;;;;;;6214458;22;21008;-94
2024/01/03 13:59:43;;;;;;;8.93;1.40;;;;;;;;;;6240755;22;20016;-93
2024/01/03 14:02:09;;;;;;;5.80;1.40;;;;;;;;;;6214226;22;20054;-93
2024/01/03 14:04:38;;;;;;;7.45;1.58;;;;;;;;;;6216967;22;20111;-94
2024/01/03 14:07:04;;;;;;;9.60;1.38;;;;;;;;;;6240419;22;20019;-93
2024/01/03 14:09:30;;;;;;;4.43;1.52;;;;;;;;;;6216734;22;20004;-94
2024/01/03 14:11:58;;;;;;;18.02;2.40;;;;;;;;;;6214951;22;20019;-94
2024/01/03 14:14:26;;;;;;;5.45;1.27;;;;;;;;;;6216057;22;20027;-93
2024/01/03 14:16:54;;;;;;;6.97;1.88;;;;;;;;;;6216430;22;20095;-94
2024/01/03 14:19:20;;;;;;;7.03;1.58;;;;;;;;;;6214035;22;20023;-93
2024/01/03 14:21:49;;;;;;;8.23;1.60;;;;;;;;;;6241340;22;20321;-93
2024/01/03 14:24:17;;;;;;;9.93;1.50;;;;;;;;;;6214101;22;20016;-93
2024/01/03 14:26:43;;;;;;;9.35;2.13;;;;;;;;;;6241061;22;20028;-93
2024/01/03 14:29:09;;;;;;;7.95;1.70;;;;;;;;;;6214501;22;20020;-93
2024/01/03 14:31:35;;;;;;;9.18;2.03;;;;;;;;;;6216073;22;20027;-92
2024/01/03 14:34:01;;;;;;;5.57;1.60;;;;;;;;;;6238393;22;20444;-93
2024/01/03 14:36:27;;;;;;;9.43;1.98;;;;;;;;;;6213640;22;20015;-93
2024/01/03 14:38:54;;;;;;;9.07;2.05;;;;;;;;;;6214807;22;20322;-93
2024/01/03 14:41:25;;;;;;;7.03;1.55;;;;;;;;;;6213116;22;20024;-93
2024/01/03 14:43:59;;;;;;;9.40;1.50;;;;;;;;;;6265215;22;20023;-93
2024/01/03 14:46:25;;;;;;;7.55;1.35;;;;;;;;;;6242499;22;20023;-93
2024/01/03 14:49:01;;;;;;;;;;;;;;;;;;;;;
2024/01/03 14:51:30;;;;;;;5.55;1.48;;;;;;;;;;6241419;22;20333;-93
2024/01/03 14:53:58;;;;;;;7.18;1.73;;;;;;;;;;6188543;22;20023;-92
2024/01/03 14:56:27;;;;;;;5.47;1.80;;;;;;;;;;6191650;22;20019;-93
2024/01/03 14:59:00;;;;;;;8.20;1.40;;;;;;;;;;6191772;22;20258;-93
2024/01/03 15:01:50;;;;;;;9.52;1.58;;;;;;;;;;6193546;22;20066;-92
2024/01/03 15:04:30;;;;;;;7.93;1.20;;;;;;;;;;6218149;22;20022;-94
2024/01/03 15:07:04;;;;;;;4.53;1.10;;;;;;;;;;6219417;22;20095;-94
2024/01/03 15:09:45;;;;;;;7.20;1.17;;;;;;;;;;6196887;22;20067;-93
2024/01/03 15:12:14;;;;;;;5.88;1.60;;;;;;;;;;6192610;22;20443;-93
2024/01/03 15:14:51;;;;;;;10.30;1.80;;;;;;;;;;6191892;22;20023;-93
2024/01/03 15:17:23;;;;;;;4.90;1.87;;;;;;;;;;6191389;22;20031;-93
2024/01/03 15:19:51;;;;;;;4.80;1.48;;;;;;;;;;6192454;22;20020;-93
2024/01/03 15:22:26;;;;;;;9.20;1.70;;;;;;;;;;6191528;22;20054;-93
2024/01/03 15:24:52;;;;;;;11.75;2.38;;;;;;;;;;6192860;22;20475;-93
2024/01/03 15:27:26;;;;;;;10.32;1.55;;;;;;;;;;6192011;22;20022;-93
2024/01/03 15:30:05;;;;;;;3.80;1.20;;;;;;;;;;6217502;22;20022;-92
2024/01/03 15:32:35;;;;;;;9.68;2.65;;;;;;;;;;6229175;22;20030;-92
2024/01/03 15:35:18;;;;;;;7.38;1.98;;;;;;;;;;6190572;22;20543;-93
2024/01/03 15:37:53;;;;;;;8.00;1.85;;;;;;;;;;6197990;22;20047;-93
2024/01/03 15:40:25;;;;;;;9.63;2.08;;;;;;;;;;6189060;22;20058;-92
2024/01/03 15:42:56;;;;;;;10.15;1.45;;;;;;;;;;6191775;22;20782;-93
2024/01/03 15:45:26;;;;;;;7.32;1.63;;;;;;;;;;6190658;22;20051;-94
2024/01/03 15:47:52;;;;;;;16.10;2.42;;;;;;;;;;6217374;22;20054;-93
2024/01/03 15:50:28;;;;;;;8.60;2.60;;;;;;;;;;6189487;22;20043;-92
2024/01/03 15:53:00;;;;;;;;;;;;;;;;;;6199849;22;20027;-93
2024/01/03 15:55:49;;;;;;;8.18;2.78;;;;;;;;;;6214438;22;19961;-93
2024/01/03 15:58:17;;;;;;;8.93;2.00;;;;;;;;;;6268114;22;20012;-93
2024/01/03 16:00:59;;;;;;;;;;;;;;;;;;;;;